sensor_id;sensor_type;location;lat;lon;timestamp;pressure;altitude;pressure_sealevel;temperature;humidity
49949;BME280;35840;45.982;8.890;2023-08-31T00:01:31;97786.78;;;17.06;62.30
49949;BME280;35840;45.982;8.890;2023-08-31T00:03:59;97780.72;;;17.15;62.89
49949;BME280;35840;45.982;8.890;2023-08-31T00:06:26;97781.22;;;17.19;62.72
49949;BME280;35840;45.982;8.890;2023-08-31T00:08:53;97791.13;;;17.15;63.37
49949;BME280;35840;45.982;8.890;2023-08-31T00:11:19;97793.56;;;17.17;63.79
49949;BME280;35840;45.982;8.890;2023-08-31T00:13:46;97793.03;;;17.13;63.07
49949;BME280;35840;45.982;8.890;2023-08-31T00:16:13;97800.38;;;17.18;63.62
49949;BME280;35840;45.982;8.890;2023-08-31T00:18:40;97799.94;;;17.23;64.01
49949;BME280;35840;45.982;8.890;2023-08-31T00:21:07;97799.19;;;17.30;63.78
49949;BME280;35840;45.982;8.890;2023-08-31T00:23:36;97805.78;;;17.25;62.88
49949;BME280;35840;45.982;8.890;2023-08-31T00:26:03;97804.97;;;17.06;63.70
49949;BME280;35840;45.982;8.890;2023-08-31T00:28:30;97800.38;;;17.18;63.87
49949;BME280;35840;45.982;8.890;2023-08-31T00:30:56;97808.00;;;17.19;63.28
49949;BME280;35840;45.982;8.890;2023-08-31T00:33:25;97806.59;;;17.25;62.41
49949;BME280;35840;45.982;8.890;2023-08-31T00:35:52;97803.13;;;17.16;62.84
49949;BME280;35840;45.982;8.890;2023-08-31T00:38:18;97810.53;;;16.93;63.17
49949;BME280;35840;45.982;8.890;2023-08-31T00:40:46;97816.38;;;16.95;63.66
49949;BME280;35840;45.982;8.890;2023-08-31T00:43:13;97819.16;;;16.84;63.46
49949;BME280;35840;45.982;8.890;2023-08-31T00:45:41;97809.03;;;16.91;63.31
49949;BME280;35840;45.982;8.890;2023-08-31T00:48:08;97817.50;;;16.93;63.43
49949;BME280;35840;45.982;8.890;2023-08-31T00:50:35;97813.22;;;17.01;62.99
49949;BME280;35840;45.982;8.890;2023-08-31T00:53:03;97815.34;;;16.88;64.38
49949;BME280;35840;45.982;8.890;2023-08-31T00:55:31;97808.59;;;16.67;64.69
49949;BME280;35840;45.982;8.890;2023-08-31T00:57:58;97813.75;;;16.77;64.47
49949;BME280;35840;45.982;8.890;2023-08-31T01:00:33;97821.38;;;16.79;64.31
49949;BME280;35840;45.982;8.890;2023-08-31T01:03:08;97830.41;;;16.47;64.66
49949;BME280;35840;45.982;8.890;2023-08-31T01:05:44;97830.06;;;16.32;65.52
49949;BME280;35840;45.982;8.890;2023-08-31T01:08:19;97827.13;;;16.55;64.76
49949;BME280;35840;45.982;8.890;2023-08-31T01:13:19;97840.06;;;16.64;63.76
49949;BME280;35840;45.982;8.890;2023-08-31T01:15:50;97835.03;;;16.81;63.23
49949;BME280;35840;45.982;8.890;2023-08-31T01:18:17;97841.06;;;16.81;63.89
49949;BME280;35840;45.982;8.890;2023-08-31T01:23:42;97834.56;;;16.67;64.00
49949;BME280;35840;45.982;8.890;2023-08-31T01:26:09;97836.06;;;16.70;64.35
49949;BME280;35840;45.982;8.890;2023-08-31T01:28:38;97850.75;;;16.79;63.80
49949;BME280;35840;45.982;8.890;2023-08-31T01:31:04;97838.88;;;16.77;64.45
49949;BME280;35840;45.982;8.890;2023-08-31T01:33:35;97848.00;;;16.81;64.05
49949;BME280;35840;45.982;8.890;2023-08-31T01:36:03;97845.66;;;16.87;63.39
49949;BME280;35840;45.982;8.890;2023-08-31T01:38:34;97854.97;;;16.90;63.52
49949;BME280;35840;45.982;8.890;2023-08-31T01:41:03;97858.06;;;16.66;64.21
49949;BME280;35840;45.982;8.890;2023-08-31T01:43:32;97857.78;;;16.69;64.13
49949;BME280;35840;45.982;8.890;2023-08-31T01:46:00;97868.41;;;16.76;63.98
49949;BME280;35840;45.982;8.890;2023-08-31T01:48:26;97860.63;;;16.76;63.83
49949;BME280;35840;45.982;8.890;2023-08-31T01:50:53;97861.72;;;16.73;64.72
49949;BME280;35840;45.982;8.890;2023-08-31T01:53:20;97859.09;;;16.83;63.90
49949;BME280;35840;45.982;8.890;2023-08-31T01:55:46;97852.25;;;16.82;64.32
49949;BME280;35840;45.982;8.890;2023-08-31T01:58:13;97861.81;;;16.91;63.04
49949;BME280;35840;45.982;8.890;2023-08-31T02:00:41;97861.97;;;16.80;63.71
49949;BME280;35840;45.982;8.890;2023-08-31T02:03:07;97858.78;;;16.86;63.82
49949;BME280;35840;45.982;8.890;2023-08-31T02:05:35;97861.28;;;16.78;64.16
49949;BME280;35840;45.982;8.890;2023-08-31T02:08:01;97856.09;;;16.78;63.85
49949;BME280;35840;45.982;8.890;2023-08-31T02:10:28;97872.34;;;16.80;64.94
49949;BME280;35840;45.982;8.890;2023-08-31T02:12:56;97864.03;;;16.76;63.00
49949;BME280;35840;45.982;8.890;2023-08-31T02:15:23;97871.38;;;16.81;64.47
49949;BME280;35840;45.982;8.890;2023-08-31T02:17:50;97871.91;;;16.84;64.25
49949;BME280;35840;45.982;8.890;2023-08-31T02:20:16;97873.31;;;16.79;65.06
49949;BME280;35840;45.982;8.890;2023-08-31T02:22:43;97875.22;;;16.77;63.91
49949;BME280;35840;45.982;8.890;2023-08-31T02:25:09;97873.97;;;16.81;64.26
49949;BME280;35840;45.982;8.890;2023-08-31T02:27:36;97878.94;;;16.74;64.13
49949;BME280;35840;45.982;8.890;2023-08-31T02:30:03;97881.28;;;16.67;64.16
49949;BME280;35840;45.982;8.890;2023-08-31T02:32:33;97875.00;;;16.70;64.37
49949;BME280;35840;45.982;8.890;2023-08-31T02:35:00;97874.75;;;16.63;64.50
49949;BME280;35840;45.982;8.890;2023-08-31T02:37:26;97876.94;;;16.58;65.22
49949;BME280;35840;45.982;8.890;2023-08-31T02:39:53;97885.34;;;16.42;65.18
49949;BME280;35840;45.982;8.890;2023-08-31T02:42:20;97876.31;;;16.46;64.90
49949;BME280;35840;45.982;8.890;2023-08-31T02:44:46;97877.53;;;16.52;64.25
49949;BME280;35840;45.982;8.890;2023-08-31T02:47:13;97887.97;;;16.32;64.45
49949;BME280;35840;45.982;8.890;2023-08-31T02:49:40;97888.25;;;16.29;64.78
49949;BME280;35840;45.982;8.890;2023-08-31T02:52:06;97890.31;;;16.16;65.50
49949;BME280;35840;45.982;8.890;2023-08-31T02:54:33;97887.88;;;16.05;66.24
49949;BME280;35840;45.982;8.890;2023-08-31T02:57:00;97881.31;;;16.10;65.15
49949;BME280;35840;45.982;8.890;2023-08-31T02:59:27;97889.75;;;16.22;65.41
49949;BME280;35840;45.982;8.890;2023-08-31T03:01:54;97890.03;;;16.19;64.95
49949;BME280;35840;45.982;8.890;2023-08-31T03:04:21;97885.09;;;16.26;65.12
49949;BME280;35840;45.982;8.890;2023-08-31T03:06:48;97892.88;;;16.26;64.68
49949;BME280;35840;45.982;8.890;2023-08-31T03:09:15;97889.91;;;16.11;64.54
49949;BME280;35840;45.982;8.890;2023-08-31T03:11:42;97885.53;;;16.21;64.11
49949;BME280;35840;45.982;8.890;2023-08-31T03:14:09;97888.56;;;16.07;65.73
49949;BME280;35840;45.982;8.890;2023-08-31T03:16:36;97884.75;;;15.91;66.20
49949;BME280;35840;45.982;8.890;2023-08-31T03:19:03;97896.06;;;16.00;65.84
49949;BME280;35840;45.982;8.890;2023-08-31T03:21:30;97902.06;;;16.10;65.40
49949;BME280;35840;45.982;8.890;2023-08-31T03:23:56;97894.81;;;16.14;65.26
49949;BME280;35840;45.982;8.890;2023-08-31T03:26:23;97899.47;;;16.10;64.69
49949;BME280;35840;45.982;8.890;2023-08-31T03:28:50;97901.66;;;16.15;64.85
49949;BME280;35840;45.982;8.890;2023-08-31T03:31:17;97899.44;;;16.20;64.78
49949;BME280;35840;45.982;8.890;2023-08-31T03:33:44;97904.09;;;16.16;66.13
49949;BME280;35840;45.982;8.890;2023-08-31T03:36:10;97904.41;;;16.13;64.79
49949;BME280;35840;45.982;8.890;2023-08-31T03:38:37;97906.97;;;16.13;64.25
49949;BME280;35840;45.982;8.890;2023-08-31T03:41:05;97911.88;;;16.16;64.79
49949;BME280;35840;45.982;8.890;2023-08-31T03:43:31;97907.38;;;16.09;64.69
49949;BME280;35840;45.982;8.890;2023-08-31T03:45:59;97908.63;;;16.05;64.31
49949;BME280;35840;45.982;8.890;2023-08-31T03:48:26;97913.69;;;15.96;65.13
49949;BME280;35840;45.982;8.890;2023-08-31T03:50:53;97922.84;;;15.91;65.96
49949;BME280;35840;45.982;8.890;2023-08-31T03:53:21;97923.94;;;15.88;65.65
49949;BME280;35840;45.982;8.890;2023-08-31T03:55:50;97918.88;;;15.96;65.42
49949;BME280;35840;45.982;8.890;2023-08-31T03:58:17;97926.25;;;15.91;65.18
49949;BME280;35840;45.982;8.890;2023-08-31T04:00:48;97923.78;;;15.80;65.05
49949;BME280;35840;45.982;8.890;2023-08-31T04:03:17;97926.25;;;15.81;65.67
49949;BME280;35840;45.982;8.890;2023-08-31T04:05:44;97925.81;;;15.76;65.66
49949;BME280;35840;45.982;8.890;2023-08-31T04:08:11;97933.06;;;15.82;66.10
49949;BME280;35840;45.982;8.890;2023-08-31T04:10:38;97931.72;;;15.88;65.77
49949;BME280;35840;45.982;8.890;2023-08-31T04:13:05;97932.66;;;15.87;64.73
49949;BME280;35840;45.982;8.890;2023-08-31T04:15:31;97932.25;;;15.82;65.77
49949;BME280;35840;45.982;8.890;2023-08-31T04:17:58;97933.59;;;15.86;65.49
49949;BME280;35840;45.982;8.890;2023-08-31T04:20:25;97938.41;;;15.81;65.98
49949;BME280;35840;45.982;8.890;2023-08-31T04:22:51;97939.84;;;15.54;66.65
49949;BME280;35840;45.982;8.890;2023-08-31T04:25:18;97942.56;;;15.43;66.52
49949;BME280;35840;45.982;8.890;2023-08-31T04:27:44;97947.19;;;15.59;66.69
49949;BME280;35840;45.982;8.890;2023-08-31T04:30:11;97937.41;;;15.62;65.89
49949;BME280;35840;45.982;8.890;2023-08-31T04:32:38;97952.16;;;15.81;65.56
49949;BME280;35840;45.982;8.890;2023-08-31T04:35:05;97956.25;;;15.84;65.90
49949;BME280;35840;45.982;8.890;2023-08-31T04:37:32;97960.59;;;15.64;66.19
49949;BME280;35840;45.982;8.890;2023-08-31T04:39:59;97958.78;;;15.55;67.33
49949;BME280;35840;45.982;8.890;2023-08-31T04:42:26;97961.19;;;15.27;66.70
49949;BME280;35840;45.982;8.890;2023-08-31T04:44:52;97968.47;;;15.43;66.81
49949;BME280;35840;45.982;8.890;2023-08-31T04:47:19;97965.06;;;15.62;66.29
49949;BME280;35840;45.982;8.890;2023-08-31T04:49:46;97966.19;;;15.59;65.62
49949;BME280;35840;45.982;8.890;2023-08-31T04:52:12;97964.66;;;15.57;65.66
49949;BME280;35840;45.982;8.890;2023-08-31T04:54:39;97969.31;;;15.63;66.08
49949;BME280;35840;45.982;8.890;2023-08-31T04:57:06;97975.03;;;15.57;65.55
49949;BME280;35840;45.982;8.890;2023-08-31T04:59:33;97978.56;;;15.46;66.68
49949;BME280;35840;45.982;8.890;2023-08-31T05:02:00;97986.34;;;15.56;65.79
49949;BME280;35840;45.982;8.890;2023-08-31T05:04:27;97986.78;;;15.61;66.46
49949;BME280;35840;45.982;8.890;2023-08-31T05:06:55;97987.72;;;15.70;66.30
49949;BME280;35840;45.982;8.890;2023-08-31T05:09:23;97991.53;;;15.56;66.72
49949;BME280;35840;45.982;8.890;2023-08-31T05:11:50;97995.03;;;15.45;66.50
49949;BME280;35840;45.982;8.890;2023-08-31T05:14:16;97999.66;;;15.31;66.66
49949;BME280;35840;45.982;8.890;2023-08-31T05:16:43;98012.59;;;15.31;66.78
49949;BME280;35840;45.982;8.890;2023-08-31T05:19:10;98011.97;;;15.49;66.43
49949;BME280;35840;45.982;8.890;2023-08-31T05:21:36;98016.34;;;15.58;66.63
49949;BME280;35840;45.982;8.890;2023-08-31T05:24:03;98017.31;;;15.67;66.74
49949;BME280;35840;45.982;8.890;2023-08-31T05:26:29;98011.41;;;15.45;68.11
49949;BME280;35840;45.982;8.890;2023-08-31T05:28:56;98012.13;;;15.57;67.11
49949;BME280;35840;45.982;8.890;2023-08-31T05:31:23;98017.84;;;15.51;67.80
49949;BME280;35840;45.982;8.890;2023-08-31T05:33:49;98029.00;;;15.52;68.52
49949;BME280;35840;45.982;8.890;2023-08-31T05:36:16;98036.13;;;15.59;68.21
49949;BME280;35840;45.982;8.890;2023-08-31T05:38:43;98034.69;;;15.36;68.63
49949;BME280;35840;45.982;8.890;2023-08-31T05:41:10;98039.09;;;15.55;68.11
49949;BME280;35840;45.982;8.890;2023-08-31T05:43:36;98042.44;;;15.66;68.71
49949;BME280;35840;45.982;8.890;2023-08-31T05:46:07;98034.66;;;15.66;69.71
49949;BME280;35840;45.982;8.890;2023-08-31T05:48:34;98043.78;;;15.61;69.75
49949;BME280;35840;45.982;8.890;2023-08-31T05:51:02;98043.38;;;15.65;69.77
49949;BME280;35840;45.982;8.890;2023-08-31T05:53:32;98048.44;;;15.77;68.49
49949;BME280;35840;45.982;8.890;2023-08-31T05:55:59;98044.19;;;15.66;67.40
49949;BME280;35840;45.982;8.890;2023-08-31T05:58:34;98046.78;;;15.66;68.01
49949;BME280;35840;45.982;8.890;2023-08-31T06:01:01;98048.97;;;15.61;67.92
49949;BME280;35840;45.982;8.890;2023-08-31T06:03:28;98054.72;;;15.74;67.75
49949;BME280;35840;45.982;8.890;2023-08-31T06:05:56;98049.09;;;15.69;68.26
49949;BME280;35840;45.982;8.890;2023-08-31T06:08:23;98054.34;;;15.79;68.16
49949;BME280;35840;45.982;8.890;2023-08-31T06:10:50;98059.97;;;15.94;67.33
49949;BME280;35840;45.982;8.890;2023-08-31T06:13:17;98048.50;;;15.96;66.54
49949;BME280;35840;45.982;8.890;2023-08-31T06:15:44;98059.16;;;16.13;67.08
49949;BME280;35840;45.982;8.890;2023-08-31T06:18:14;98064.78;;;16.28;66.41
49949;BME280;35840;45.982;8.890;2023-08-31T06:20:40;98063.00;;;16.38;67.12
49949;BME280;35840;45.982;8.890;2023-08-31T06:23:08;98060.41;;;16.48;66.41
49949;BME280;35840;45.982;8.890;2023-08-31T06:25:36;98064.06;;;16.55;66.99
49949;BME280;35840;45.982;8.890;2023-08-31T06:28:03;98068.03;;;16.59;68.39
49949;BME280;35840;45.982;8.890;2023-08-31T06:30:31;98062.03;;;16.68;68.18
49949;BME280;35840;45.982;8.890;2023-08-31T06:32:58;98064.59;;;16.78;68.32
49949;BME280;35840;45.982;8.890;2023-08-31T06:35:24;98071.56;;;16.68;67.15
49949;BME280;35840;45.982;8.890;2023-08-31T06:37:51;98067.22;;;16.68;66.39
49949;BME280;35840;45.982;8.890;2023-08-31T06:40:18;98069.91;;;16.77;66.85
49949;BME280;35840;45.982;8.890;2023-08-31T06:42:45;98077.69;;;16.86;67.14
49949;BME280;35840;45.982;8.890;2023-08-31T06:45:11;98080.72;;;16.82;66.90
49949;BME280;35840;45.982;8.890;2023-08-31T06:47:38;98079.91;;;16.81;66.44
49949;BME280;35840;45.982;8.890;2023-08-31T06:50:05;98074.97;;;16.88;66.67
49949;BME280;35840;45.982;8.890;2023-08-31T06:52:33;98076.75;;;16.87;66.31
49949;BME280;35840;45.982;8.890;2023-08-31T06:55:02;98073.34;;;16.87;67.01
49949;BME280;35840;45.982;8.890;2023-08-31T06:57:29;98086.44;;;16.95;67.38
49949;BME280;35840;45.982;8.890;2023-08-31T06:59:56;98086.16;;;17.08;67.19
49949;BME280;35840;45.982;8.890;2023-08-31T07:02:25;98089.31;;;16.92;68.16
49949;BME280;35840;45.982;8.890;2023-08-31T07:04:52;98080.16;;;16.98;68.21
49949;BME280;35840;45.982;8.890;2023-08-31T07:07:19;98081.09;;;17.07;67.34
49949;BME280;35840;45.982;8.890;2023-08-31T07:09:45;98087.38;;;17.14;66.98
49949;BME280;35840;45.982;8.890;2023-08-31T07:12:12;98087.72;;;17.29;63.50
49949;BME280;35840;45.982;8.890;2023-08-31T07:14:39;98090.22;;;17.20;63.93
49949;BME280;35840;45.982;8.890;2023-08-31T07:17:05;98093.50;;;17.23;64.87
49949;BME280;35840;45.982;8.890;2023-08-31T07:19:35;98086.84;;;17.10;63.12
49949;BME280;35840;45.982;8.890;2023-08-31T07:22:01;98092.84;;;17.11;63.74
49949;BME280;35840;45.982;8.890;2023-08-31T07:24:30;98088.06;;;17.16;65.93
49949;BME280;35840;45.982;8.890;2023-08-31T07:26:57;98095.19;;;17.14;64.92
49949;BME280;35840;45.982;8.890;2023-08-31T07:29:23;98089.69;;;17.17;65.94
49949;BME280;35840;45.982;8.890;2023-08-31T07:31:51;98086.94;;;17.18;65.48
49949;BME280;35840;45.982;8.890;2023-08-31T07:34:18;98081.72;;;17.28;65.52
49949;BME280;35840;45.982;8.890;2023-08-31T07:36:44;98089.91;;;17.33;65.82
49949;BME280;35840;45.982;8.890;2023-08-31T07:39:11;98091.94;;;17.40;64.56
49949;BME280;35840;45.982;8.890;2023-08-31T07:41:38;98087.28;;;17.33;64.84
49949;BME280;35840;45.982;8.890;2023-08-31T07:44:05;98084.69;;;17.33;65.09
49949;BME280;35840;45.982;8.890;2023-08-31T07:46:32;98095.94;;;17.34;66.52
49949;BME280;35840;45.982;8.890;2023-08-31T07:48:59;98102.41;;;17.48;65.15
49949;BME280;35840;45.982;8.890;2023-08-31T07:51:26;98100.22;;;17.53;64.22
49949;BME280;35840;45.982;8.890;2023-08-31T07:53:52;98107.31;;;17.61;62.91
49949;BME280;35840;45.982;8.890;2023-08-31T07:56:19;98106.59;;;17.68;62.42
49949;BME280;35840;45.982;8.890;2023-08-31T07:58:46;98117.53;;;17.72;61.98
49949;BME280;35840;45.982;8.890;2023-08-31T08:01:13;98123.69;;;17.71;59.32
49949;BME280;35840;45.982;8.890;2023-08-31T08:03:39;98124.50;;;17.71;58.52
49949;BME280;35840;45.982;8.890;2023-08-31T08:06:06;98123.38;;;17.74;55.15
49949;BME280;35840;45.982;8.890;2023-08-31T08:08:33;98125.13;;;17.83;56.07
49949;BME280;35840;45.982;8.890;2023-08-31T08:11:00;98131.78;;;17.96;58.11
49949;BME280;35840;45.982;8.890;2023-08-31T08:13:26;98126.28;;;17.99;58.76
49949;BME280;35840;45.982;8.890;2023-08-31T08:15:53;98134.72;;;18.11;58.92
49949;BME280;35840;45.982;8.890;2023-08-31T08:18:20;98141.22;;;18.24;60.65
49949;BME280;35840;45.982;8.890;2023-08-31T08:20:47;98146.28;;;18.26;60.77
49949;BME280;35840;45.982;8.890;2023-08-31T08:23:14;98151.56;;;18.34;59.08
49949;BME280;35840;45.982;8.890;2023-08-31T08:25:41;98140.63;;;18.49;60.80
49949;BME280;35840;45.982;8.890;2023-08-31T08:28:08;98144.72;;;18.51;61.32
49949;BME280;35840;45.982;8.890;2023-08-31T08:30:34;98147.47;;;18.50;61.68
49949;BME280;35840;45.982;8.890;2023-08-31T08:33:01;98152.25;;;18.54;61.72
49949;BME280;35840;45.982;8.890;2023-08-31T08:35:29;98155.19;;;18.59;61.39
49949;BME280;35840;45.982;8.890;2023-08-31T08:37:55;98160.19;;;18.71;61.17
49949;BME280;35840;45.982;8.890;2023-08-31T08:40:22;98159.06;;;18.73;60.84
49949;BME280;35840;45.982;8.890;2023-08-31T08:42:49;98159.81;;;18.84;61.78
49949;BME280;35840;45.982;8.890;2023-08-31T08:45:19;98161.59;;;18.83;59.72
49949;BME280;35840;45.982;8.890;2023-08-31T08:47:47;98154.25;;;18.79;59.35
49949;BME280;35840;45.982;8.890;2023-08-31T08:50:14;98164.84;;;18.85;59.81
49949;BME280;35840;45.982;8.890;2023-08-31T08:52:41;98157.81;;;18.96;60.70
49949;BME280;35840;45.982;8.890;2023-08-31T08:55:08;98163.59;;;19.07;60.43
49949;BME280;35840;45.982;8.890;2023-08-31T08:57:35;98162.72;;;19.17;60.04
49949;BME280;35840;45.982;8.890;2023-08-31T09:00:02;98163.03;;;19.22;60.88
49949;BME280;35840;45.982;8.890;2023-08-31T09:02:30;98159.09;;;19.18;59.04
49949;BME280;35840;45.982;8.890;2023-08-31T09:04:56;98157.50;;;19.17;58.73
49949;BME280;35840;45.982;8.890;2023-08-31T09:07:24;98163.34;;;19.19;58.89
49949;BME280;35840;45.982;8.890;2023-08-31T09:09:51;98158.81;;;19.21;59.26
49949;BME280;35840;45.982;8.890;2023-08-31T09:12:23;98159.25;;;19.16;58.87
49949;BME280;35840;45.982;8.890;2023-08-31T09:15:00;98163.50;;;19.17;58.15
49949;BME280;35840;45.982;8.890;2023-08-31T09:17:37;98159.94;;;19.18;57.21
49949;BME280;35840;45.982;8.890;2023-08-31T09:20:04;98155.06;;;19.23;56.86
49949;BME280;35840;45.982;8.890;2023-08-31T09:22:32;98155.34;;;19.38;58.00
49949;BME280;35840;45.982;8.890;2023-08-31T09:24:59;98152.53;;;19.58;57.76
49949;BME280;35840;45.982;8.890;2023-08-31T09:27:26;98155.13;;;19.58;56.08
49949;BME280;35840;45.982;8.890;2023-08-31T09:29:56;98154.44;;;19.56;55.62
49949;BME280;35840;45.982;8.890;2023-08-31T09:32:23;98147.53;;;19.73;57.88
49949;BME280;35840;45.982;8.890;2023-08-31T09:34:49;98155.69;;;19.78;56.68
49949;BME280;35840;45.982;8.890;2023-08-31T09:37:24;98154.94;;;19.86;56.05
49949;BME280;35840;45.982;8.890;2023-08-31T09:39:51;98151.44;;;20.03;56.82
49949;BME280;35840;45.982;8.890;2023-08-31T09:42:19;98147.53;;;20.16;57.40
49949;BME280;35840;45.982;8.890;2023-08-31T09:44:48;98146.25;;;20.20;56.36
49949;BME280;35840;45.982;8.890;2023-08-31T09:47:16;98155.91;;;20.27;55.21
49949;BME280;35840;45.982;8.890;2023-08-31T09:49:42;98156.53;;;20.29;56.04
49949;BME280;35840;45.982;8.890;2023-08-31T09:52:10;98156.34;;;20.23;53.09
49949;BME280;35840;45.982;8.890;2023-08-31T09:54:37;98155.22;;;20.25;54.51
49949;BME280;35840;45.982;8.890;2023-08-31T09:57:05;98154.91;;;20.37;52.32
49949;BME280;35840;45.982;8.890;2023-08-31T09:59:32;98157.88;;;20.42;51.00
49949;BME280;35840;45.982;8.890;2023-08-31T10:02:00;98155.75;;;20.45;50.78
49949;BME280;35840;45.982;8.890;2023-08-31T10:04:29;98157.91;;;20.58;53.73
49949;BME280;35840;45.982;8.890;2023-08-31T10:06:57;98160.84;;;20.63;52.89
49949;BME280;35840;45.982;8.890;2023-08-31T10:09:24;98152.84;;;20.65;52.37
49949;BME280;35840;45.982;8.890;2023-08-31T10:11:50;98155.59;;;20.55;48.88
49949;BME280;35840;45.982;8.890;2023-08-31T10:14:18;98158.72;;;20.59;49.41
49949;BME280;35840;45.982;8.890;2023-08-31T10:16:47;98144.84;;;20.58;48.77
49949;BME280;35840;45.982;8.890;2023-08-31T10:19:14;98147.94;;;20.62;48.93
49949;BME280;35840;45.982;8.890;2023-08-31T10:21:41;98145.22;;;20.72;49.41
49949;BME280;35840;45.982;8.890;2023-08-31T10:24:10;98148.94;;;20.69;48.01
49949;BME280;35840;45.982;8.890;2023-08-31T10:26:37;98149.13;;;20.68;48.90
49949;BME280;35840;45.982;8.890;2023-08-31T10:29:04;98153.84;;;20.72;51.55
49949;BME280;35840;45.982;8.890;2023-08-31T10:31:33;98140.47;;;20.84;50.92
49949;BME280;35840;45.982;8.890;2023-08-31T10:34:01;98140.97;;;20.87;51.81
49949;BME280;35840;45.982;8.890;2023-08-31T10:36:40;98133.28;;;20.86;49.28
49949;BME280;35840;45.982;8.890;2023-08-31T10:39:17;98139.00;;;20.89;49.05
49949;BME280;35840;45.982;8.890;2023-08-31T10:41:54;98135.22;;;21.00;50.16
49949;BME280;35840;45.982;8.890;2023-08-31T10:44:22;98129.16;;;21.16;47.94
49949;BME280;35840;45.982;8.890;2023-08-31T10:46:49;98133.75;;;21.22;46.63
49949;BME280;35840;45.982;8.890;2023-08-31T10:49:17;98132.91;;;21.30;50.58
49949;BME280;35840;45.982;8.890;2023-08-31T10:51:45;98136.81;;;21.34;49.07
49949;BME280;35840;45.982;8.890;2023-08-31T10:54:20;98134.81;;;21.44;47.69
49949;BME280;35840;45.982;8.890;2023-08-31T10:56:53;98139.38;;;21.59;47.76
49949;BME280;35840;45.982;8.890;2023-08-31T10:59:24;98139.19;;;21.60;46.12
49949;BME280;35840;45.982;8.890;2023-08-31T11:01:57;98136.22;;;21.72;46.54
49949;BME280;35840;45.982;8.890;2023-08-31T11:04:26;98135.72;;;21.76;47.10
49949;BME280;35840;45.982;8.890;2023-08-31T11:09:39;98133.13;;;21.76;48.40
49949;BME280;35840;45.982;8.890;2023-08-31T11:12:06;98122.75;;;21.83;50.35
49949;BME280;35840;45.982;8.890;2023-08-31T11:14:33;98128.69;;;21.77;47.63
49949;BME280;35840;45.982;8.890;2023-08-31T11:17:00;98120.63;;;21.87;49.76
49949;BME280;35840;45.982;8.890;2023-08-31T11:19:28;98122.91;;;21.90;47.85
49949;BME280;35840;45.982;8.890;2023-08-31T11:21:54;98123.50;;;22.00;49.72
49949;BME280;35840;45.982;8.890;2023-08-31T11:24:21;98115.19;;;21.96;49.43
49949;BME280;35840;45.982;8.890;2023-08-31T11:26:49;98119.91;;;22.01;48.08
49949;BME280;35840;45.982;8.890;2023-08-31T11:29:16;98118.78;;;21.95;49.62
49949;BME280;35840;45.982;8.890;2023-08-31T11:31:43;98117.16;;;21.94;47.74
49949;BME280;35840;45.982;8.890;2023-08-31T11:34:13;98117.16;;;21.94;48.49
49949;BME280;35840;45.982;8.890;2023-08-31T11:36:43;98114.06;;;21.91;48.88
49949;BME280;35840;45.982;8.890;2023-08-31T11:39:10;98114.41;;;21.88;46.08
49949;BME280;35840;45.982;8.890;2023-08-31T11:41:37;98114.44;;;21.79;47.03
49949;BME280;35840;45.982;8.890;2023-08-31T11:44:08;98118.03;;;21.78;45.77
49949;BME280;35840;45.982;8.890;2023-08-31T11:46:36;98122.44;;;21.86;47.52
49949;BME280;35840;45.982;8.890;2023-08-31T11:49:03;98116.72;;;21.82;44.03
49949;BME280;35840;45.982;8.890;2023-08-31T11:51:33;98122.47;;;21.78;43.96
49949;BME280;35840;45.982;8.890;2023-08-31T11:54:01;98117.38;;;21.84;43.77
49949;BME280;35840;45.982;8.890;2023-08-31T11:56:40;98125.25;;;21.84;48.54
49949;BME280;35840;45.982;8.890;2023-08-31T11:59:08;98126.03;;;21.85;47.41
49949;BME280;35840;45.982;8.890;2023-08-31T12:01:37;98127.75;;;22.01;43.64
49949;BME280;35840;45.982;8.890;2023-08-31T12:04:09;98128.69;;;22.08;47.62
49949;BME280;35840;45.982;8.890;2023-08-31T12:06:36;98130.91;;;22.19;47.65
49949;BME280;35840;45.982;8.890;2023-08-31T12:09:03;98133.53;;;22.19;44.35
49949;BME280;35840;45.982;8.890;2023-08-31T12:11:31;98133.84;;;22.25;44.68
49949;BME280;35840;45.982;8.890;2023-08-31T12:14:03;98136.13;;;22.28;45.32
49949;BME280;35840;45.982;8.890;2023-08-31T12:16:34;98131.69;;;22.28;44.51
49949;BME280;35840;45.982;8.890;2023-08-31T12:19:04;98139.47;;;22.45;45.27
49949;BME280;35840;45.982;8.890;2023-08-31T12:21:31;98134.81;;;22.55;46.42
49949;BME280;35840;45.982;8.890;2023-08-31T12:24:00;98128.41;;;22.58;44.97
49949;BME280;35840;45.982;8.890;2023-08-31T12:26:30;98134.41;;;22.66;47.97
49949;BME280;35840;45.982;8.890;2023-08-31T12:28:57;98145.28;;;22.78;49.21
49949;BME280;35840;45.982;8.890;2023-08-31T12:31:24;98145.13;;;22.80;49.14
49949;BME280;35840;45.982;8.890;2023-08-31T12:33:51;98140.50;;;22.82;50.19
49949;BME280;35840;45.982;8.890;2023-08-31T12:36:17;98143.53;;;22.94;50.00
49949;BME280;35840;45.982;8.890;2023-08-31T12:38:44;98145.97;;;22.95;49.60
49949;BME280;35840;45.982;8.890;2023-08-31T12:41:10;98144.69;;;22.91;50.23
49949;BME280;35840;45.982;8.890;2023-08-31T12:43:37;98144.50;;;22.93;49.11
49949;BME280;35840;45.982;8.890;2023-08-31T12:46:04;98144.88;;;22.90;50.33
49949;BME280;35840;45.982;8.890;2023-08-31T12:48:34;98140.44;;;22.90;51.64
49949;BME280;35840;45.982;8.890;2023-08-31T12:51:00;98136.28;;;22.96;50.67
49949;BME280;35840;45.982;8.890;2023-08-31T12:53:27;98144.50;;;22.93;50.70
49949;BME280;35840;45.982;8.890;2023-08-31T12:55:54;98137.06;;;22.81;51.05
49949;BME280;35840;45.982;8.890;2023-08-31T12:58:21;98140.38;;;22.75;51.13
49949;BME280;35840;45.982;8.890;2023-08-31T13:00:50;98130.66;;;22.61;50.94
49949;BME280;35840;45.982;8.890;2023-08-31T13:03:19;98150.34;;;22.57;52.84
49949;BME280;35840;45.982;8.890;2023-08-31T13:05:46;98142.56;;;22.72;54.77
49949;BME280;35840;45.982;8.890;2023-08-31T13:08:13;98140.50;;;22.82;52.21
49949;BME280;35840;45.982;8.890;2023-08-31T13:10:40;98134.66;;;22.95;52.80